sensor_id;sensor_type;location;lat;lon;timestamp;pressure;altitude;pressure_sealevel;temperature;humidity
16806;BME280;8520;50.102;20.010;2023-03-20T18:46:26;98187.06;;;12.43;78.20
16806;BME280;8520;50.102;20.010;2023-03-20T18:48:54;98182.63;;;11.88;79.88
16806;BME280;8520;50.102;20.010;2023-03-20T18:51:23;98179.66;;;12.23;78.63
16806;BME280;8520;50.102;20.010;2023-03-20T18:53:51;98181.78;;;12.40;78.54
16806;BME280;8520;50.102;20.010;2023-03-20T18:56:21;98175.03;;;12.52;77.38
16806;BME280;8520;50.102;20.010;2023-03-20T18:58:50;98186.47;;;12.28;79.23
16806;BME280;8520;50.102;20.010;2023-03-20T19:01:18;98179.81;;;12.14;79.75
16806;BME280;8520;50.102;20.010;2023-03-20T19:03:48;98178.75;;;12.37;79.11
16806;BME280;8520;50.102;20.010;2023-03-20T19:06:21;98177.03;;;12.08;80.64
16806;BME280;8520;50.102;20.010;2023-03-20T19:08:50;98165.31;;;12.19;79.51
16806;BME280;8520;50.102;20.010;2023-03-20T19:11:19;98162.41;;;12.40;79.20
16806;BME280;8520;50.102;20.010;2023-03-20T19:13:48;98163.19;;;12.08;80.71
16806;BME280;8520;50.102;20.010;2023-03-20T19:16:20;98174.72;;;12.07;79.91
16806;BME280;8520;50.102;20.010;2023-03-20T19:18:51;98169.06;;;12.64;78.78
16806;BME280;8520;50.102;20.010;2023-03-20T19:21:19;98173.09;;;12.63;78.78
16806;BME280;8520;50.102;20.010;2023-03-20T19:23:52;98177.13;;;12.68;78.48
16806;BME280;8520;50.102;20.010;2023-03-20T19:26:21;98176.72;;;12.92;77.71
16806;BME280;8520;50.102;20.010;2023-03-20T19:28:50;98181.41;;;12.21;80.34
16806;BME280;8520;50.102;20.010;2023-03-20T19:31:20;98183.84;;;12.13;80.64
16806;BME280;8520;50.102;20.010;2023-03-20T19:33:50;98179.94;;;12.31;79.49
16806;BME280;8520;50.102;20.010;2023-03-20T19:36:24;98182.94;;;11.96;80.89
16806;BME280;8520;50.102;20.010;2023-03-20T19:38:54;98180.78;;;12.43;79.31
16806;BME280;8520;50.102;20.010;2023-03-20T19:41:22;98184.84;;;12.16;79.18
16806;BME280;8520;50.102;20.010;2023-03-20T19:43:50;98193.75;;;11.62;81.55
16806;BME280;8520;50.102;20.010;2023-03-20T19:46:22;98185.13;;;11.80;81.29
16806;BME280;8520;50.102;20.010;2023-03-20T19:49:14;98188.31;;;12.05;80.69
16806;BME280;8520;50.102;20.010;2023-03-20T19:51:45;98189.28;;;11.70;81.93
16806;BME280;8520;50.102;20.010;2023-03-20T19:54:13;98192.94;;;11.30;83.03
16806;BME280;8520;50.102;20.010;2023-03-20T19:56:42;98191.69;;;11.31;83.67
16806;BME280;8520;50.102;20.010;2023-03-20T19:59:10;98184.53;;;11.19;84.23
16806;BME280;8520;50.102;20.010;2023-03-20T20:01:42;98188.50;;;11.38;83.52
16806;BME280;8520;50.102;20.010;2023-03-20T20:04:13;98196.72;;;10.86;85.66
16806;BME280;8520;50.102;20.010;2023-03-20T20:06:42;98182.97;;;10.92;85.71
16806;BME280;8520;50.102;20.010;2023-03-20T20:09:13;98177.13;;;10.84;85.36
16806;BME280;8520;50.102;20.010;2023-03-20T20:11:41;98182.56;;;10.99;86.32
16806;BME280;8520;50.102;20.010;2023-03-20T20:14:09;98180.84;;;11.02;86.27
16806;BME280;8520;50.102;20.010;2023-03-20T20:16:40;98181.13;;;10.83;85.91
16806;BME280;8520;50.102;20.010;2023-03-20T20:19:09;98181.03;;;11.18;84.17
16806;BME280;8520;50.102;20.010;2023-03-20T20:21:39;98170.41;;;11.37;83.67
16806;BME280;8520;50.102;20.010;2023-03-20T20:24:27;98181.88;;;11.30;84.25
16806;BME280;8520;50.102;20.010;2023-03-20T20:26:55;98174.75;;;11.44;83.57
16806;BME280;8520;50.102;20.010;2023-03-20T20:29:45;98166.38;;;11.64;82.96
16806;BME280;8520;50.102;20.010;2023-03-20T20:32:15;98164.16;;;11.42;83.04
16806;BME280;8520;50.102;20.010;2023-03-20T20:34:43;98166.94;;;10.96;85.05
16806;BME280;8520;50.102;20.010;2023-03-20T20:37:34;98177.81;;;11.00;84.79
16806;BME280;8520;50.102;20.010;2023-03-20T20:40:26;98178.59;;;11.06;85.05
16806;BME280;8520;50.102;20.010;2023-03-20T20:42:55;98170.63;;;11.08;85.53
16806;BME280;8520;50.102;20.010;2023-03-20T20:45:28;98167.66;;;11.37;83.89
16806;BME280;8520;50.102;20.010;2023-03-20T20:47:58;98162.88;;;11.38;83.58
16806;BME280;8520;50.102;20.010;2023-03-20T20:50:29;98162.78;;;11.27;84.57
16806;BME280;8520;50.102;20.010;2023-03-20T20:52:59;98168.56;;;11.29;83.78
16806;BME280;8520;50.102;20.010;2023-03-20T20:55:27;98166.94;;;10.96;85.13
16806;BME280;8520;50.102;20.010;2023-03-20T20:57:56;98173.34;;;10.82;86.44
16806;BME280;8520;50.102;20.010;2023-03-20T21:00:25;98172.56;;;10.81;85.87
16806;BME280;8520;50.102;20.010;2023-03-20T21:03:14;98164.94;;;11.17;85.40
16806;BME280;8520;50.102;20.010;2023-03-20T21:05:42;98171.53;;;11.51;83.83
16806;BME280;8520;50.102;20.010;2023-03-20T21:08:12;98173.03;;;11.00;86.19
16806;BME280;8520;50.102;20.010;2023-03-20T21:10:43;98175.22;;;11.42;85.31
16806;BME280;8520;50.102;20.010;2023-03-20T21:13:11;98171.59;;;11.57;83.94
16806;BME280;8520;50.102;20.010;2023-03-20T21:15:39;98166.88;;;11.37;84.12
16806;BME280;8520;50.102;20.010;2023-03-20T21:18:08;98163.66;;;11.70;83.40
16806;BME280;8520;50.102;20.010;2023-03-20T21:20:36;98164.19;;;11.74;82.30
16806;BME280;8520;50.102;20.010;2023-03-20T21:23:04;98167.22;;;12.07;81.32
16806;BME280;8520;50.102;20.010;2023-03-20T21:25:34;98162.53;;;11.88;81.45
16806;BME280;8520;50.102;20.010;2023-03-20T21:28:07;98168.59;;;11.34;83.72
16806;BME280;8520;50.102;20.010;2023-03-20T21:30:36;98170.88;;;11.93;82.15
16806;BME280;8520;50.102;20.010;2023-03-20T21:33:16;98162.66;;;12.04;80.84
16806;BME280;8520;50.102;20.010;2023-03-20T21:35:45;98159.06;;;12.30;79.61
16806;BME280;8520;50.102;20.010;2023-03-20T21:38:13;98168.06;;;12.19;80.15
16806;BME280;8520;50.102;20.010;2023-03-20T21:41:08;98165.38;;;12.30;80.16
16806;BME280;8520;50.102;20.010;2023-03-20T21:43:36;98163.91;;;12.03;81.24
16806;BME280;8520;50.102;20.010;2023-03-20T21:46:05;98173.03;;;12.15;80.59
16806;BME280;8520;50.102;20.010;2023-03-20T21:48:53;98175.41;;;11.96;81.46
16806;BME280;8520;50.102;20.010;2023-03-20T21:51:41;98168.13;;;12.30;79.76
16806;BME280;8520;50.102;20.010;2023-03-20T21:54:29;98167.34;;;12.24;80.13
16806;BME280;8520;50.102;20.010;2023-03-20T21:57:19;98169.94;;;12.39;79.67
16806;BME280;8520;50.102;20.010;2023-03-20T22:00:08;98181.72;;;11.65;81.55
16806;BME280;8520;50.102;20.010;2023-03-20T22:02:57;98174.97;;;12.03;81.05
16806;BME280;8520;50.102;20.010;2023-03-20T22:05:37;98174.81;;;11.81;81.53
16806;BME280;8520;50.102;20.010;2023-03-20T22:08:25;98178.53;;;11.46;83.59
16806;BME280;8520;50.102;20.010;2023-03-20T22:11:13;98181.91;;;11.62;82.56
16806;BME280;8520;50.102;20.010;2023-03-20T22:14:03;98185.44;;;11.10;85.78
16806;BME280;8520;50.102;20.010;2023-03-20T22:16:51;98184.75;;;11.41;83.90
16806;BME280;8520;50.102;20.010;2023-03-20T22:19:39;98189.19;;;11.33;84.27
16806;BME280;8520;50.102;20.010;2023-03-20T22:22:28;98197.72;;;10.48;88.71
16806;BME280;8520;50.102;20.010;2023-03-20T22:25:16;98194.97;;;10.33;89.40
16806;BME280;8520;50.102;20.010;2023-03-20T22:28:04;98192.09;;;10.98;87.32
16806;BME280;8520;50.102;20.010;2023-03-20T22:30:54;98193.53;;;10.53;88.76
16806;BME280;8520;50.102;20.010;2023-03-20T22:33:43;98199.97;;;10.85;86.56
16806;BME280;8520;50.102;20.010;2023-03-20T22:36:33;98203.22;;;10.48;89.28
16806;BME280;8520;50.102;20.010;2023-03-20T22:39:21;98189.63;;;10.09;90.42
16806;BME280;8520;50.102;20.010;2023-03-20T22:42:10;98191.56;;;10.59;88.90
16806;BME280;8520;50.102;20.010;2023-03-20T22:44:58;98195.63;;;10.08;90.30
16806;BME280;8520;50.102;20.010;2023-03-20T22:47:31;98196.31;;;10.38;90.06
16806;BME280;8520;50.102;20.010;2023-03-20T22:50:00;98199.72;;;10.48;89.02
16806;BME280;8520;50.102;20.010;2023-03-20T22:52:28;98201.91;;;10.44;89.33
16806;BME280;8520;50.102;20.010;2023-03-20T22:55:13;98189.78;;;10.56;88.98
16806;BME280;8520;50.102;20.010;2023-03-20T22:57:42;98195.09;;;10.24;89.76
16806;BME280;8520;50.102;20.010;2023-03-20T23:00:31;98197.75;;;9.69;91.50
16806;BME280;8520;50.102;20.010;2023-03-20T23:03:00;98192.88;;;10.08;91.38
16806;BME280;8520;50.102;20.010;2023-03-20T23:05:48;98193.09;;;9.90;91.51
16806;BME280;8520;50.102;20.010;2023-03-20T23:08:17;98193.03;;;10.54;89.04
16806;BME280;8520;50.102;20.010;2023-03-20T23:10:47;98187.38;;;10.43;88.78
16806;BME280;8520;50.102;20.010;2023-03-20T23:13:16;98194.19;;;10.68;86.89
16806;BME280;8520;50.102;20.010;2023-03-20T23:15:46;98192.81;;;10.58;87.80
16806;BME280;8520;50.102;20.010;2023-03-20T23:18:17;98194.63;;;11.02;86.28
16806;BME280;8520;50.102;20.010;2023-03-20T23:20:46;98194.88;;;10.98;84.77
16806;BME280;8520;50.102;20.010;2023-03-20T23:23:14;98184.16;;;10.85;85.56
16806;BME280;8520;50.102;20.010;2023-03-20T23:25:42;98184.53;;;10.78;86.26
16806;BME280;8520;50.102;20.010;2023-03-20T23:28:11;98178.09;;;11.53;83.61
16806;BME280;8520;50.102;20.010;2023-03-20T23:30:39;98185.69;;;10.51;85.94
16806;BME280;8520;50.102;20.010;2023-03-20T23:33:16;98187.19;;;11.08;85.07
16806;BME280;8520;50.102;20.010;2023-03-20T23:35:45;98168.81;;;11.57;82.65
16806;BME280;8520;50.102;20.010;2023-03-20T23:38:15;98178.09;;;11.85;81.67
16806;BME280;8520;50.102;20.010;2023-03-20T23:40:47;98169.50;;;11.77;81.97
16806;BME280;8520;50.102;20.010;2023-03-20T23:43:16;98171.91;;;11.64;82.19
16806;BME280;8520;50.102;20.010;2023-03-20T23:45:44;98168.38;;;11.95;81.06
16806;BME280;8520;50.102;20.010;2023-03-20T23:48:13;98165.53;;;11.84;81.81
16806;BME280;8520;50.102;20.010;2023-03-20T23:50:44;98165.38;;;12.30;79.86
16806;BME280;8520;50.102;20.010;2023-03-20T23:53:32;98152.16;;;12.57;78.89
16806;BME280;8520;50.102;20.010;2023-03-20T23:56:00;98151.16;;;12.54;78.61
16806;BME280;8520;50.102;20.010;2023-03-20T23:58:28;98159.97;;;12.58;78.02
